Time;durP1;ratioP1;P1;durP2;ratioP2;P2;SDS_P1;SDS_P2;PMS_P1;PMS_P2;Temp;Humidity;BMP_temperature;BMP_pressure;BME280_temperature;BME280_humidity;BME280_pressure;Samples;Min_cycle;Max_cycle;Signal;HPM_P1;HPM_P2
2023/06/25 00:01:44;;;;;;;10.53;6.70;;;14.10;31.20;;;;;;5024394;28;46581;-80
2023/06/25 00:04:10;;;;;;;11.07;6.43;;;14.10;31.50;;;;;;5027511;28;46986;-78
2023/06/25 00:06:35;;;;;;;11.10;6.20;;;13.90;31.60;;;;;;5028646;28;46815;-78
2023/06/25 00:09:02;;;;;;;8.97;5.93;;;13.80;31.70;;;;;;5027504;28;46427;-78
2023/06/25 00:11:28;;;;;;;10.00;6.70;;;13.70;31.00;;;;;;5027574;28;46442;-77
2023/06/25 00:13:54;;;;;;;12.27;6.80;;;14.50;32.80;;;;;;5029725;28;46511;-79
2023/06/25 00:16:19;;;;;;;9.40;6.57;;;13.70;32.20;;;;;;5036057;28;46346;-78
2023/06/25 00:18:47;;;;;;;12.73;7.00;;;13.70;32.50;;;;;;5032159;28;46248;-77
2023/06/25 00:21:13;;;;;;;15.40;6.77;;;13.40;31.60;;;;;;5029793;28;46421;-78
2023/06/25 00:23:38;;;;;;;12.23;6.20;;;13.40;32.70;;;;;;5034705;28;47093;-79
2023/06/25 00:26:04;;;;;;;10.07;6.53;;;13.20;32.60;;;;;;5027832;28;46583;-78
2023/06/25 00:28:30;;;;;;;11.80;7.10;;;13.30;32.70;;;;;;5036562;28;47928;-77
2023/06/25 00:30:55;;;;;;;9.50;6.20;;;14.70;33.50;;;;;;5030916;28;45939;-79
2023/06/25 00:33:21;;;;;;;12.30;7.00;;;13.30;33.10;;;;;;5030939;28;46432;-79
2023/06/25 00:35:49;;;;;;;11.37;7.00;;;13.20;33.00;;;;;;5038810;28;46443;-79
2023/06/25 00:38:15;;;;;;;9.30;6.20;;;13.20;33.00;;;;;;5029300;28;47112;-79
2023/06/25 00:40:40;;;;;;;14.20;7.37;;;13.20;33.00;;;;;;5031364;28;46565;-79
2023/06/25 00:43:06;;;;;;;10.60;6.90;;;13.10;32.00;;;;;;5027542;28;46518;-78
2023/06/25 00:45:33;;;;;;;11.70;7.30;;;13.20;33.20;;;;;;5028840;28;46879;-78
2023/06/25 00:47:58;;;;;;;9.87;6.50;;;13.20;33.10;;;;;;5030448;28;46970;-78
2023/06/25 00:50:24;;;;;;;9.93;6.17;;;13.30;33.30;;;;;;5028179;28;45909;-78
2023/06/25 00:52:51;;;;;;;10.10;7.10;;;13.10;32.40;;;;;;5029292;28;46708;-77
2023/06/25 00:55:19;;;;;;;11.30;6.37;;;13.10;33.10;;;;;;5030312;28;46643;-79
2023/06/25 00:57:44;;;;;;;9.80;6.37;;;13.10;33.20;;;;;;5035303;28;48524;-77
2023/06/25 01:00:14;;;;;;;11.57;6.47;;;13.20;33.30;;;;;;5026900;28;46987;-78
2023/06/25 01:03:00;;;;;;;10.73;6.87;;;13.20;32.70;;;;;;5029628;28;46717;-78
2023/06/25 01:05:43;;;;;;;11.20;7.57;;;13.20;33.50;;;;;;5025969;28;46469;-77
2023/06/25 01:08:10;;;;;;;9.70;6.70;;;13.20;33.30;;;;;;5029122;28;47152;-78
2023/06/25 01:10:37;;;;;;;10.90;7.10;;;13.10;33.30;;;;;;5028993;28;46418;-79
2023/06/25 01:13:04;;;;;;;11.00;7.30;;;13.10;32.60;;;;;;5027485;28;46448;-79
2023/06/25 01:15:29;;;;;;;11.07;7.40;;;13.10;33.60;;;;;;5037793;28;46716;-78
2023/06/25 01:17:57;;;;;;;10.13;7.00;;;13.10;33.70;;;;;;5034491;28;45916;-78
2023/06/25 01:20:26;;;;;;;13.33;6.97;;;13.10;33.80;;;;;;5034101;28;46391;-80
2023/06/25 01:22:53;;;;;;;12.60;7.80;;;13.10;33.50;;;;;;5035211;28;46255;-76
2023/06/25 01:25:18;;;;;;;10.50;6.50;;;13.00;34.20;;;;;;5037079;28;46527;-78
2023/06/25 01:27:44;;;;;;;9.60;6.83;;;13.00;34.50;;;;;;5030617;28;46312;-78
2023/06/25 01:30:11;;;;;;;11.57;6.87;;;13.00;34.70;;;;;;5030526;28;46592;-77
2023/06/25 01:32:41;;;;;;;14.13;7.00;;;12.90;34.10;;;;;;5030953;28;46521;-78
2023/06/25 01:35:07;;;;;;;13.43;6.90;;;12.90;35.10;;;;;;5036456;28;46468;-78
2023/06/25 01:37:33;;;;;;;11.07;7.80;;;13.40;35.60;;;;;;5027842;28;46754;-78
2023/06/25 01:39:59;;;;;;;14.03;7.50;;;12.70;35.30;;;;;;5027977;28;46436;-77
2023/06/25 01:42:24;;;;;;;13.43;7.20;;;12.60;35.50;;;;;;5032667;28;46499;-78
2023/06/25 01:44:50;;;;;;;9.33;6.33;;;12.50;35.80;;;;;;5032246;28;46129;-78
2023/06/25 01:47:16;;;;;;;10.30;6.53;;;12.50;36.10;;;;;;5035630;28;49405;-79
2023/06/25 01:49:41;;;;;;;11.33;7.60;;;12.40;36.10;;;;;;5039576;28;45978;-78
2023/06/25 01:52:07;;;;;;;12.23;7.50;;;12.40;36.10;;;;;;5031809;28;46396;-78
2023/06/25 01:54:33;;;;;;;13.50;7.97;;;12.50;36.20;;;;;;5027421;28;46675;-79
2023/06/25 01:57:00;;;;;;;16.47;8.07;;;12.40;36.10;;;;;;5031947;28;47867;-79
2023/06/25 01:59:25;;;;;;;13.23;7.63;;;12.40;36.20;;;;;;5041707;28;47915;-78
2023/06/25 02:01:51;;;;;;;13.23;7.93;;;12.40;36.20;;;;;;5035378;28;46599;-82
2023/06/25 02:04:16;;;;;;;17.70;8.13;;;12.40;36.20;;;;;;5033911;28;46476;-78
2023/06/25 02:06:42;;;;;;;13.80;7.43;;;12.40;36.20;;;;;;5036285;28;48256;-79
2023/06/25 02:09:07;;;;;;;12.60;7.97;;;12.40;36.20;;;;;;5036953;28;46552;-77
2023/06/25 02:11:33;;;;;;;12.10;7.50;;;12.40;36.40;;;;;;5030658;28;46423;-79
2023/06/25 02:13:58;;;;;;;12.00;8.00;;;12.40;37.60;;;;;;5032833;28;46468;-78
2023/06/25 02:16:24;;;;;;;12.47;7.20;;;12.40;36.50;;;;;;5028808;28;48968;-80
2023/06/25 02:18:50;;;;;;;15.40;9.33;;;12.40;36.50;;;;;;5032869;28;46417;-78
2023/06/25 02:21:16;;;;;;;12.57;8.20;;;12.40;35.80;;;;;;5032948;28;46439;-79
2023/06/25 02:23:41;;;;;;;11.47;7.60;;;12.40;36.70;;;;;;5028057;28;46678;-79
2023/06/25 02:26:07;;;;;;;11.20;7.27;;;12.40;36.80;;;;;;5033879;28;46642;-79
2023/06/25 02:28:33;;;;;;;10.60;7.10;;;12.30;37.00;;;;;;5030339;28;46345;-79
2023/06/25 02:30:58;;;;;;;12.33;7.07;;;12.30;36.20;;;;;;5035648;28;46351;-78
2023/06/25 02:33:24;;;;;;;10.63;7.00;;;12.20;37.20;;;;;;5030164;28;46451;-78
2023/06/25 02:35:50;;;;;;;11.97;7.10;;;12.10;37.30;;;;;;5027708;28;46435;-80
2023/06/25 02:38:15;;;;;;;16.10;7.53;;;12.20;37.40;;;;;;5032232;28;46389;-78
2023/06/25 02:40:41;;;;;;;11.13;7.00;;;12.20;37.40;;;;;;5028512;28;45834;-79
2023/06/25 02:43:06;;;;;;;13.67;7.80;;;12.10;36.40;;;;;;5032216;28;46545;-79
2023/06/25 02:45:32;;;;;;;11.37;6.70;;;12.10;37.40;;;;;;5031123;28;46461;-80
2023/06/25 02:47:57;;;;;;;10.53;6.67;;;12.00;37.50;;;;;;5027982;28;46524;-77
2023/06/25 02:50:23;;;;;;;10.90;6.90;;;12.00;37.70;;;;;;5035775;28;46483;-79
2023/06/25 02:52:48;;;;;;;10.87;6.93;;;11.90;37.70;;;;;;5031827;28;45947;-78
2023/06/25 02:55:14;;;;;;;13.50;6.97;;;11.80;38.00;;;;;;5029696;28;46432;-79
2023/06/25 02:57:39;;;;;;;10.40;6.97;;;11.80;38.20;;;;;;5031129;28;46467;-77
2023/06/25 03:00:07;;;;;;;13.80;7.23;;;11.70;38.30;;;;;;5032196;28;46427;-80
2023/06/25 03:02:33;;;;;;;13.80;6.93;;;11.70;38.30;;;;;;5031400;28;46403;-79
2023/06/25 03:04:58;;;;;;;9.63;6.80;;;11.60;38.50;;;;;;5031409;28;46389;-79
2023/06/25 03:07:24;;;;;;;12.93;7.37;;;11.50;38.50;;;;;;5028387;28;46776;-79
2023/06/25 03:09:49;;;;;;;14.57;8.40;;;11.50;38.80;;;;;;5032624;28;46621;-79
2023/06/25 03:12:15;;;;;;;13.43;8.23;;;11.50;37.80;;;;;;5032710;28;46455;-80
2023/06/25 03:14:41;;;;;;;14.50;9.13;;;11.60;38.60;;;;;;5031142;28;46381;-79
2023/06/25 03:17:07;;;;;;;16.60;8.70;;;11.60;38.30;;;;;;5029842;28;46431;-78
2023/06/25 03:19:33;;;;;;;14.10;7.70;;;11.60;38.30;;;;;;5031012;28;46549;-79
2023/06/25 03:21:59;;;;;;;14.77;8.47;;;11.70;38.40;;;;;;5033942;28;46385;-79
2023/06/25 03:24:24;;;;;;;13.63;8.57;;;11.80;38.30;;;;;;5032116;28;47402;-81
2023/06/25 03:26:50;;;;;;;14.90;7.80;;;11.80;38.00;;;;;;5033330;28;46393;-81
2023/06/25 03:29:16;;;;;;;13.90;7.90;;;11.90;38.10;;;;;;5031107;28;46209;-81
2023/06/25 03:31:42;;;;;;;11.17;7.03;;;12.00;38.10;;;;;;5033258;28;46408;-79
2023/06/25 03:34:07;;;;;;;12.03;7.93;;;12.00;37.90;;;;;;5031553;28;46348;-81
2023/06/25 03:36:33;;;;;;;17.63;7.60;;;12.00;38.10;;;;;;5030920;28;46874;-80
2023/06/25 03:38:59;;;;;;;13.03;8.70;;;12.10;38.00;;;;;;5027520;28;46376;-79
2023/06/25 03:41:25;;;;;;;17.00;8.40;;;12.10;37.90;;;;;;5029466;28;46371;-78
2023/06/25 03:43:51;;;;;;;12.87;8.40;;;12.20;38.00;;;;;;5036979;28;49110;-80
2023/06/25 03:46:16;;;;;;;13.83;7.77;;;12.20;37.80;;;;;;5028529;28;46571;-78
2023/06/25 03:48:43;;;;;;;12.73;7.60;;;12.30;37.80;;;;;;5028258;28;46510;-79
2023/06/25 03:51:09;;;;;;;9.30;6.93;;;12.40;36.60;;;;;;5030279;28;46580;-78
2023/06/25 03:53:34;;;;;;;11.37;6.97;;;12.40;37.70;;;;;;5043811;28;46734;-78
2023/06/25 03:56:00;;;;;;;18.40;7.60;;;12.50;37.50;;;;;;5030793;28;46528;-79
2023/06/25 03:58:25;;;;;;;11.57;7.07;;;12.50;37.30;;;;;;5026364;28;46404;-78
2023/06/25 04:00:51;;;;;;;15.03;7.70;;;12.60;37.40;;;;;;5033740;28;45953;-79
2023/06/25 04:03:17;;;;;;;11.67;7.13;;;12.60;36.40;;;;;;5026702;28;46713;-78
2023/06/25 04:05:44;;;;;;;11.93;6.47;;;12.60;37.20;;;;;;5028630;28;46471;-79
2023/06/25 04:08:10;;;;;;;12.07;6.87;;;12.70;37.20;;;;;;5027212;28;46467;-79
2023/06/25 04:10:35;;;;;;;12.93;7.40;;;12.70;37.10;;;;;;5032177;28;46364;-78
2023/06/25 04:13:01;;;;;;;14.60;8.37;;;12.70;36.20;;;;;;5027160;28;46834;-78
2023/06/25 04:15:26;;;;;;;13.67;8.10;;;12.80;37.20;;;;;;5035533;28;46475;-79
2023/06/25 04:17:52;;;;;;;13.77;7.20;;;12.80;37.00;;;;;;5029466;28;46878;-79
2023/06/25 04:20:18;;;;;;;10.17;7.57;;;14.50;38.30;;;;;;5028992;28;45963;-78
2023/06/25 04:22:43;;;;;;;12.50;8.10;;;13.10;36.60;;;;;;5027529;28;46785;-78
2023/06/25 04:25:09;;;;;;;14.57;8.07;;;13.30;36.50;;;;;;5029889;28;46669;-80
2023/06/25 04:27:34;;;;;;;14.93;8.50;;;13.20;36.20;;;;;;5026160;28;46828;-81
2023/06/25 04:30:00;;;;;;;13.20;8.90;;;13.30;36.00;;;;;;5027412;28;46606;-80
2023/06/25 04:32:25;;;;;;;12.77;7.80;;;13.50;35.70;;;;;;5027428;28;46506;-79
2023/06/25 04:34:51;;;;;;;12.03;8.50;;;13.70;35.30;;;;;;5028116;28;46893;-80
2023/06/25 04:37:17;;;;;;;18.97;9.83;;;13.90;35.00;;;;;;5034081;28;46393;-79
2023/06/25 04:39:42;;;;;;;12.80;9.00;;;14.00;34.80;;;;;;5035331;28;46327;-78
2023/06/25 04:42:08;;;;;;;12.20;8.40;;;14.20;34.50;;;;;;5025187;28;46624;-78
2023/06/25 04:44:33;;;;;;;12.20;8.07;;;14.50;33.50;;;;;;5027704;28;46391;-79
2023/06/25 04:46:59;;;;;;;12.03;7.60;;;15.90;31.70;;;;;;5024393;28;45808;-78
2023/06/25 04:49:24;;;;;;;10.67;7.13;;;17.90;29.10;;;;;;5027800;28;46419;-77
2023/06/25 04:51:50;;;;;;;10.83;7.00;;;19.70;25.70;;;;;;5028005;28;49234;-79
2023/06/25 04:54:15;;;;;;;12.80;7.10;;;21.10;23.20;;;;;;5025708;28;47190;-77
2023/06/25 04:56:41;;;;;;;9.80;6.33;;;22.30;21.60;;;;;;5036616;28;46478;-80
2023/06/25 04:59:07;;;;;;;11.50;6.30;;;23.30;19.70;;;;;;5028994;28;46432;-78
2023/06/25 05:01:32;;;;;;;14.60;6.90;;;25.00;15.50;;;;;;5031219;28;46661;-80
2023/06/25 05:03:58;;;;;;;11.90;6.27;;;25.30;15.70;;;;;;5034138;28;46411;-78
2023/06/25 05:06:24;;;;;;;11.77;7.00;;;25.80;14.50;;;;;;5025100;28;46465;-78
2023/06/25 05:08:50;;;;;;;12.13;7.20;;;26.70;13.00;;;;;;5026422;28;46468;-81
2023/06/25 05:11:16;;;;;;;15.10;8.40;;;27.80;9.90;;;;;;5030083;28;46482;-80
2023/06/25 05:13:41;;;;;;;10.13;5.93;;;27.80;10.30;;;;;;5033832;28;46385;-82
2023/06/25 05:16:07;;;;;;;11.57;6.90;;;28.30;9.30;;;;;;5028006;28;46505;-78
2023/06/25 05:18:33;;;;;;;12.00;8.30;;;28.70;8.40;;;;;;5034171;28;47053;-78
2023/06/25 05:20:58;;;;;;;11.47;8.20;;;29.40;5.90;;;;;;5025128;28;47193;-78
2023/06/25 05:23:25;;;;;;;11.23;8.13;;;29.40;6.40;;;;;;5029477;28;46393;-79
2023/06/25 05:25:51;;;;;;;9.97;7.70;;;29.70;6.00;;;;;;5034339;28;46858;-80
2023/06/25 05:28:16;;;;;;;11.07;7.33;;;30.00;5.50;;;;;;5031211;28;46689;-79
2023/06/25 05:30:42;;;;;;;11.53;8.20;;;30.50;3.90;;;;;;5030286;28;48346;-77
2023/06/25 05:33:07;;;;;;;12.40;8.70;;;30.80;2.40;;;;;;5028030;28;46637;-80
2023/06/25 05:35:33;;;;;;;11.97;7.40;;;31.20;1.50;;;;;;5029127;28;46500;-80
2023/06/25 05:37:58;;;;;;;9.80;7.27;;;31.50;1.00;;;;;;5028858;28;45950;-79
2023/06/25 05:40:28;;;;;;;11.23;7.90;;;31.80;1.00;;;;;;5029885;28;47379;-78
2023/06/25 05:42:54;;;;;;;7.70;6.20;;;31.90;1.00;;;;;;5033455;28;46732;-80
2023/06/25 05:45:21;;;;;;;10.07;7.53;;;32.20;1.00;;;;;;5026922;28;46984;-78
2023/06/25 05:47:47;;;;;;;9.40;6.90;;;31.90;1.00;;;;;;5026703;28;46657;-77
2023/06/25 05:50:12;;;;;;;11.20;7.10;;;31.70;1.00;;;;;;5033319;28;47161;-77
2023/06/25 05:52:40;;;;;;;11.67;7.90;;;31.60;1.00;;;;;;5026357;28;46499;-78
2023/06/25 05:55:06;;;;;;;10.23;8.10;;;31.70;1.00;;;;;;5024269;28;46479;-79
2023/06/25 05:57:32;;;;;;;13.67;7.97;;;30.00;1.00;;;;;;5029785;28;46344;-77
2023/06/25 05:59:58;;;;;;;16.73;8.27;;;27.80;4.50;;;;;;5031093;28;48388;-78
2023/06/25 06:02:23;;;;;;;13.60;8.50;;;26.50;6.00;;;;;;5030424;28;46304;-77
2023/06/25 06:04:49;;;;;;;12.03;8.77;;;25.50;8.20;;;;;;5030888;28;47081;-78
2023/06/25 06:07:14;;;;;;;10.07;7.80;;;24.50;10.30;;;;;;5028079;28;46551;-78
2023/06/25 06:09:40;;;;;;;12.60;8.97;;;23.70;11.60;;;;;;5029615;28;46842;-79
2023/06/25 06:12:06;;;;;;;11.67;8.20;;;23.10;12.10;;;;;;5028012;28;46421;-78
2023/06/25 06:14:33;;;;;;;11.47;8.00;;;22.80;12.60;;;;;;5034782;28;46415;-77
2023/06/25 06:16:58;;;;;;;14.67;9.00;;;22.90;12.40;;;;;;5034334;28;46543;-77
2023/06/25 06:19:24;;;;;;;11.33;8.27;;;22.70;12.20;;;;;;5028001;28;46511;-78
2023/06/25 06:21:50;;;;;;;12.03;8.10;;;22.70;12.30;;;;;;5034971;28;46816;-79
2023/06/25 06:24:15;;;;;;;10.67;7.27;;;22.50;12.70;;;;;;5028767;28;46887;-77
2023/06/25 06:26:41;;;;;;;10.97;7.97;;;22.40;12.50;;;;;;5030154;28;46455;-77
2023/06/25 06:29:06;;;;;;;11.20;6.80;;;22.50;12.50;;;;;;5028758;28;46439;-77
2023/06/25 06:31:32;;;;;;;10.43;7.50;;;22.50;12.20;;;;;;5028311;28;46783;-79
2023/06/25 06:33:58;;;;;;;15.13;6.17;;;22.50;12.20;;;;;;5032366;28;46879;-78
2023/06/25 06:36:23;;;;;;;11.27;6.40;;;22.60;12.30;;;;;;5036799;28;46450;-78
2023/06/25 06:38:50;;;;;;;8.90;6.03;;;22.50;12.50;;;;;;5029825;28;46495;-78
2023/06/25 06:41:15;;;;;;;9.50;5.87;;;22.60;11.10;;;;;;5031615;28;46500;-78
2023/06/25 06:43:41;;;;;;;9.37;5.87;;;22.60;11.90;;;;;;5036085;28;46447;-81
2023/06/25 06:46:06;;;;;;;8.70;6.13;;;22.80;11.50;;;;;;5038037;28;46304;-77
2023/06/25 06:48:32;;;;;;;10.40;5.90;;;23.10;11.20;;;;;;5025482;28;46409;-79
2023/06/25 06:50:58;;;;;;;8.80;5.30;;;22.90;10.10;;;;;;5030195;28;46245;-76
2023/06/25 06:53:25;;;;;;;9.40;6.20;;;22.80;11.00;;;;;;5026563;28;46580;-78
2023/06/25 06:55:51;;;;;;;10.23;5.40;;;23.00;10.70;;;;;;5029300;28;46495;-78
2023/06/25 06:58:17;;;;;;;11.07;5.60;;;23.30;10.10;;;;;;5033542;28;49215;-77
2023/06/25 07:00:42;;;;;;;9.50;5.20;;;23.40;9.50;;;;;;5030701;28;46421;-78
2023/06/25 07:03:08;;;;;;;10.60;5.60;;;23.40;8.70;;;;;;5029762;28;46388;-78
2023/06/25 07:05:33;;;;;;;9.87;6.10;;;23.50;9.40;;;;;;5029577;28;46828;-78
2023/06/25 07:07:59;;;;;;;7.73;4.80;;;23.20;9.90;;;;;;5029455;28;46472;-79
2023/06/25 07:10:24;;;;;;;11.37;5.43;;;23.20;9.80;;;;;;5028351;28;46410;-78
2023/06/25 07:12:50;;;;;;;8.23;5.00;;;23.20;8.70;;;;;;5032656;28;46561;-76
2023/06/25 07:15:16;;;;;;;9.37;5.57;;;23.40;9.60;;;;;;5026949;28;46760;-79
2023/06/25 07:17:42;;;;;;;11.47;4.80;;;23.40;9.30;;;;;;5032937;28;46531;-77
2023/06/25 07:20:08;;;;;;;8.70;5.23;;;23.30;9.40;;;;;;5034503;28;46473;-78
2023/06/25 07:22:34;;;;;;;9.40;4.70;;;23.50;7.80;;;;;;5034456;28;46459;-78
2023/06/25 07:25:00;;;;;;;7.10;4.47;;;23.60;8.30;;;;;;5035269;28;47320;-77
2023/06/25 07:27:26;;;;;;;9.40;4.57;;;23.80;8.10;;;;;;5034489;28;46466;-79
2023/06/25 07:29:51;;;;;;;10.30;5.20;;;23.90;7.50;;;;;;5035066;28;46485;-77
2023/06/25 07:32:17;;;;;;;9.20;5.10;;;24.10;6.30;;;;;;5042483;28;46527;-77
2023/06/25 07:34:42;;;;;;;11.87;5.00;;;24.20;7.00;;;;;;5035452;28;46388;-75
2023/06/25 07:37:08;;;;;;;8.00;5.20;;;24.40;6.70;;;;;;5035007;28;47542;-78
2023/06/25 07:39:33;;;;;;;11.90;4.60;;;24.40;6.50;;;;;;5039316;28;45784;-77
2023/06/25 07:41:59;;;;;;;8.73;5.10;;;24.50;5.20;;;;;;5037073;28;47163;-76
2023/06/25 07:44:26;;;;;;;6.93;4.57;;;24.60;5.90;;;;;;5030446;28;45882;-76
2023/06/25 07:46:52;;;;;;;6.77;4.30;;;24.60;5.70;;;;;;5029449;28;45924;-76
2023/06/25 07:49:17;;;;;;;7.50;4.57;;;24.50;5.30;;;;;;5028089;28;47041;-76
2023/06/25 07:51:45;;;;;;;12.87;4.33;;;24.50;4.50;;;;;;5025058;28;46221;-78
2023/06/25 07:54:11;;;;;;;8.40;5.20;;;24.60;5.20;;;;;;5035104;28;46400;-79
2023/06/25 07:56:36;;;;;;;11.30;4.43;;;24.70;5.00;;;;;;5026991;28;46447;-79
2023/06/25 07:59:02;;;;;;;6.90;4.43;;;24.70;5.00;;;;;;5026619;28;46704;-81
2023/06/25 08:01:29;;;;;;;7.23;4.40;;;24.70;4.20;;;;;;5027905;28;46438;-78
2023/06/25 08:03:56;;;;;;;8.13;4.87;;;25.00;5.20;;;;;;5027861;28;46051;-80
2023/06/25 08:06:23;;;;;;;7.63;5.10;;;25.00;4.90;;;;;;5027480;28;46149;-78
2023/06/25 08:08:48;;;;;;;6.97;4.43;;;25.00;4.50;;;;;;5026146;28;46428;-75
2023/06/25 08:11:14;;;;;;;10.30;4.80;;;25.20;3.30;;;;;;5028353;28;46571;-77
2023/06/25 08:13:39;;;;;;;6.97;4.90;;;25.20;4.20;;;;;;5030717;28;46380;-78
2023/06/25 08:16:05;;;;;;;11.03;4.70;;;25.50;3.90;;;;;;5027671;28;46638;-77
2023/06/25 08:18:30;;;;;;;8.63;5.40;;;25.80;3.90;;;;;;5022778;28;46889;-77
2023/06/25 08:20:59;;;;;;;12.00;5.73;;;25.70;2.90;;;;;;5028782;28;47407;-80
2023/06/25 08:23:26;;;;;;;7.43;4.57;;;25.70;2.90;;;;;;5046772;22;46065;-71
2023/06/25 08:25:55;;;;;;;9.27;5.10;;;25.60;2.90;;;;;;5007634;28;46688;-70
2023/06/25 08:28:21;;;;;;;8.13;5.30;;;25.60;3.80;;;;;;4988985;28;46523;-67
2023/06/25 08:30:48;;;;;;;9.40;4.60;;;25.50;2.80;;;;;;5018206;22;46323;-68
2023/06/25 08:33:14;;;;;;;8.10;5.00;;;25.40;3.70;;;;;;5006328;28;46230;-70
2023/06/25 08:35:40;;;;;;;15.70;5.20;;;25.50;2.30;;;;;;5021955;23;46651;-70
2023/06/25 08:38:06;;;;;;;8.43;5.00;;;25.50;3.10;;;;;;5012310;28;46450;-74
2023/06/25 08:40:35;;;;;;;7.50;4.90;;;25.60;2.70;;;;;;5015075;28;46474;-70
2023/06/25 08:43:02;;;;;;;7.50;4.90;;;25.70;3.00;;;;;;5013460;28;46556;-68
2023/06/25 08:45:29;;;;;;;6.60;4.23;;;25.80;2.50;;;;;;5015340;28;46610;-67
2023/06/25 08:47:59;;;;;;;7.90;5.13;;;25.70;2.30;;;;;;5010193;28;46991;-73
2023/06/25 08:50:25;;;;;;;7.37;4.73;;;25.70;2.30;;;;;;5018753;28;46520;-68
2023/06/25 08:52:52;;;;;;;9.20;5.07;;;25.80;1.00;;;;;;5013442;28;46419;-70
2023/06/25 08:55:22;;;;;;;7.90;4.73;;;25.70;1.00;;;;;;5015418;28;46394;-70
2023/06/25 08:57:49;;;;;;;7.10;4.40;;;25.70;1.00;;;;;;5016883;28;45994;-72
2023/06/25 09:00:16;;;;;;;8.13;4.70;;;25.80;1.00;;;;;;5011314;28;46502;-70
2023/06/25 09:02:43;;;;;;;8.30;5.17;;;25.80;1.00;;;;;;5013908;28;46022;-69
2023/06/25 09:05:14;;;;;;;7.37;4.40;;;26.00;1.00;;;;;;5020215;28;46493;-69
2023/06/25 09:07:45;;;;;;;6.87;4.00;;;26.00;1.00;;;;;;5011142;28;46668;-68
2023/06/25 09:10:15;;;;;;;16.03;4.77;;;26.20;1.00;;;;;;5020572;28;46442;-69
2023/06/25 09:12:45;;;;;;;8.63;4.70;;;26.00;1.00;;;;;;5016521;28;46434;-69
2023/06/25 09:15:11;;;;;;;6.90;4.50;;;25.90;1.00;;;;;;5016647;28;48213;-68
2023/06/25 09:17:37;;;;;;;7.53;4.87;;;25.80;1.00;;;;;;5018305;28;46890;-67
2023/06/25 09:20:05;;;;;;;9.30;4.97;;;25.90;1.00;;;;;;5011850;28;46512;-68
2023/06/25 09:22:34;;;;;;;8.10;4.47;;;26.20;1.00;;;;;;5013996;28;46409;-69
2023/06/25 09:25:01;;;;;;;7.53;4.93;;;26.20;1.00;;;;;;5023017;28;47956;-68
2023/06/25 09:27:26;;;;;;;8.63;4.67;;;26.40;1.00;;;;;;5017555;28;46439;-67
2023/06/25 09:29:57;;;;;;;9.43;4.50;;;26.40;1.00;;;;;;5014633;28;46463;-68
2023/06/25 09:32:27;;;;;;;8.07;5.33;;;26.60;1.00;;;;;;5012646;28;46473;-68
2023/06/25 09:34:53;;;;;;;8.83;5.17;;;26.50;1.00;;;;;;5024932;28;46492;-68
2023/06/25 09:37:20;;;;;;;10.07;5.27;;;26.50;1.00;;;;;;5014638;28;46429;-67
2023/06/25 09:39:55;;;;;;;7.57;4.93;;;26.30;1.00;;;;;;5013763;28;46468;-70
2023/06/25 09:42:21;;;;;;;7.53;4.70;;;26.20;1.00;;;;;;5018411;28;46310;-68
2023/06/25 09:44:50;;;;;;;9.43;4.97;;;26.20;1.00;;;;;;5017031;28;46430;-70
2023/06/25 09:47:19;;;;;;;8.10;4.93;;;26.30;1.00;;;;;;5015421;28;46484;-68
2023/06/25 09:49:45;;;;;;;7.30;4.67;;;26.30;1.00;;;;;;5019081;28;46735;-68
2023/06/25 09:52:14;;;;;;;6.73;4.40;;;26.20;1.00;;;;;;5016541;28;46857;-67
2023/06/25 09:54:43;;;;;;;8.83;4.90;;;26.20;1.00;;;;;;5017357;28;46532;-72
2023/06/25 09:57:14;;;;;;;6.30;4.03;;;26.00;1.00;;;;;;5016939;28;45911;-71
2023/06/25 09:59:41;;;;;;;8.47;5.07;;;26.20;1.00;;;;;;5021882;28;45869;-74
2023/06/25 10:02:08;;;;;;;7.30;4.30;;;26.20;1.00;;;;;;5021277;28;46335;-69
2023/06/25 10:04:35;;;;;;;7.90;4.97;;;26.30;1.00;;;;;;5022699;28;47655;-71
2023/06/25 10:07:03;;;;;;;8.37;4.80;;;26.50;1.00;;;;;;5014856;28;46637;-72
2023/06/25 10:09:30;;;;;;;8.33;4.90;;;26.60;1.00;;;;;;5015243;28;46578;-69
2023/06/25 10:11:58;;;;;;;9.30;4.60;;;27.10;1.00;;;;;;5015025;28;45920;-70
2023/06/25 10:14:24;;;;;;;8.37;5.13;;;27.00;1.00;;;;;;5019811;28;46603;-69
2023/06/25 10:16:56;;;;;;;7.23;4.83;;;27.10;1.00;;;;;;5019669;28;46528;-71
2023/06/25 10:19:26;;;;;;;8.23;4.40;;;27.00;1.00;;;;;;5016128;28;46861;-68
2023/06/25 10:22:22;;;;;;;8.30;4.80;;;26.90;1.00;;;;;;5014564;28;46832;-70
2023/06/25 10:24:53;;;;;;;8.90;4.37;;;26.80;1.00;;;;;;5015515;28;46616;-68
2023/06/25 10:27:37;;;;;;;9.93;5.30;;;26.80;1.00;;;;;;5013812;28;46556;-68
2023/06/25 10:30:16;;;;;;;9.50;4.90;;;26.90;1.00;;;;;;5016829;28;46673;-68
2023/06/25 10:32:42;;;;;;;9.23;4.70;;;26.80;1.00;;;;;;5013939;28;46633;-68
2023/06/25 10:35:17;;;;;;;7.93;4.47;;;26.80;1.00;;;;;;5018675;28;46442;-68
2023/06/25 10:37:43;;;;;;;7.73;5.00;;;26.90;1.00;;;;;;4954013;28;1452218;-67
2023/06/25 10:40:11;;;;;;;8.47;4.70;;;26.90;1.00;;;;;;5015414;28;46485;-70
2023/06/25 10:42:37;;;;;;;6.90;4.73;;;26.80;1.00;;;;;;5015301;28;46667;-69
2023/06/25 10:45:07;;;;;;;11.00;5.43;;;26.90;1.00;;;;;;5014568;28;48960;-67
2023/06/25 10:47:35;;;;;;;6.90;4.20;;;26.90;1.00;;;;;;5019737;28;46625;-67
2023/06/25 10:50:02;;;;;;;10.00;5.00;;;26.90;1.00;;;;;;5017674;28;46414;-67
2023/06/25 10:52:31;;;;;;;7.27;4.87;;;26.60;1.00;;;;;;5023601;28;45915;-69
2023/06/25 10:55:01;;;;;;;8.43;5.23;;;26.60;1.00;;;;;;5020609;28;46414;-69
2023/06/25 10:57:31;;;;;;;8.73;5.03;;;26.70;1.00;;;;;;5018926;28;45984;-71
2023/06/25 10:59:59;;;;;;;7.93;4.77;;;26.90;1.00;;;;;;5020252;28;46344;-70
2023/06/25 11:02:27;;;;;;;7.93;5.00;;;26.80;1.00;;;;;;5016096;28;46513;-70
2023/06/25 11:04:56;;;;;;;7.33;4.93;;;27.10;1.00;;;;;;5016093;28;47165;-67
2023/06/25 11:07:25;;;;;;;7.03;4.87;;;27.00;1.00;;;;;;5013601;28;47188;-67
2023/06/25 11:09:54;;;;;;;7.83;4.83;;;27.00;1.00;;;;;;5038342;28;46902;-68
2023/06/25 11:12:22;;;;;;;7.30;5.10;;;26.80;1.00;;;;;;5018338;28;46397;-68
2023/06/25 11:14:49;;;;;;;8.43;4.77;;;26.90;1.00;;;;;;5012664;28;46478;-68
2023/06/25 11:17:16;;;;;;;8.57;5.60;;;26.60;1.00;;;;;;5015841;28;47006;-69
2023/06/25 11:19:42;;;;;;;7.60;5.03;;;26.60;1.00;;;;;;5017864;28;46853;-68
2023/06/25 11:22:08;;;;;;;7.80;5.17;;;26.70;1.00;;;;;;5015541;28;46556;-69
2023/06/25 11:24:36;;;;;;;8.20;5.37;;;26.90;1.00;;;;;;5013376;28;48950;-70
2023/06/25 11:27:05;;;;;;;7.60;5.10;;;27.10;1.00;;;;;;5019652;28;46688;-70
2023/06/25 11:29:39;;;;;;;8.33;5.10;;;26.80;1.00;;;;;;5014355;28;46507;-70
2023/06/25 11:32:08;;;;;;;8.37;4.60;;;26.70;1.00;;;;;;5017034;28;46585;-69
2023/06/25 11:34:35;;;;;;;9.00;5.90;;;26.60;1.00;;;;;;5018165;28;46333;-70
2023/06/25 11:37:15;;;;;;;10.30;5.53;;;26.60;1.00;;;;;;5017703;28;46759;-69
2023/06/25 11:39:45;;;;;;;7.60;5.07;;;26.80;1.00;;;;;;5018575;28;46462;-69
2023/06/25 11:42:24;;;;;;;8.70;5.70;;;26.90;1.00;;;;;;5034944;28;46450;-69
2023/06/25 11:45:07;;;;;;;10.50;5.70;;;26.80;1.00;;;;;;5019838;28;47827;-69
2023/06/25 11:47:33;;;;;;;9.50;5.67;;;26.80;1.00;;;;;;5018236;28;46402;-69
2023/06/25 11:50:00;;;;;;;9.03;5.13;;;26.90;1.00;;;;;;5019803;28;46407;-70
2023/06/25 11:52:26;;;;;;;8.40;5.67;;;26.90;1.00;;;;;;5017681;28;46404;-69
2023/06/25 11:54:51;;;;;;;7.40;4.80;;;26.90;1.00;;;;;;5017039;28;46374;-70
2023/06/25 11:57:18;;;;;;;8.37;5.23;;;27.00;1.00;;;;;;5018358;28;46527;-69
2023/06/25 11:59:44;;;;;;;8.73;5.57;;;27.10;1.00;;;;;;5013761;28;46403;-70
2023/06/25 12:02:10;;;;;;;7.33;4.67;;;27.10;1.00;;;;;;5023099;28;46379;-70
2023/06/25 12:04:36;;;;;;;7.90;5.40;;;27.00;1.00;;;;;;5011506;28;47206;-69
2023/06/25 12:07:03;;;;;;;7.43;5.30;;;27.00;1.00;;;;;;5019491;28;46540;-70
2023/06/25 12:09:28;;;;;;;8.63;5.60;;;27.00;1.00;;;;;;5018746;28;46443;-69
2023/06/25 12:11:55;;;;;;;8.27;5.03;;;27.10;1.00;;;;;;5019775;28;46786;-69
2023/06/25 12:14:21;;;;;;;6.70;4.40;;;27.10;1.00;;;;;;5017552;28;46471;-69
2023/06/25 12:16:46;;;;;;;9.27;5.90;;;27.10;1.00;;;;;;5019717;28;46617;-69
2023/06/25 12:19:12;;;;;;;7.90;5.30;;;27.00;1.00;;;;;;5018758;28;46503;-71
2023/06/25 12:21:38;;;;;;;7.77;5.23;;;27.10;1.00;;;;;;5014330;28;46470;-70
2023/06/25 12:24:04;;;;;;;11.13;5.60;;;27.20;1.00;;;;;;5016952;28;47852;-70
2023/06/25 12:26:30;;;;;;;8.10;5.07;;;27.20;1.00;;;;;;5019272;28;45816;-70
2023/06/25 12:28:56;;;;;;;11.30;6.40;;;27.30;1.00;;;;;;5023598;28;46473;-71
2023/06/25 12:31:22;;;;;;;8.00;5.53;;;27.40;1.00;;;;;;5022017;28;46458;-70
2023/06/25 12:33:48;;;;;;;10.13;5.17;;;27.40;1.00;;;;;;5018579;28;46528;-70
2023/06/25 12:36:14;;;;;;;7.43;5.10;;;27.60;1.00;;;;;;5019248;28;46587;-70
2023/06/25 12:38:40;;;;;;;8.90;5.47;;;27.50;1.00;;;;;;5015861;28;45860;-69
2023/06/25 12:41:05;;;;;;;9.57;5.30;;;27.30;1.00;;;;;;5020074;28;46318;-69
2023/06/25 12:43:31;;;;;;;10.53;5.60;;;27.20;1.00;;;;;;5018042;28;47933;-69